Time;durP1;ratioP1;P1;durP2;ratioP2;P2;SDS_P1;SDS_P2;PMS_P1;PMS_P2;Temp;Humidity;BMP_temperature;BMP_pressure;BME280_temperature;BME280_humidity;BME280_pressure;Samples;Min_cycle;Max_cycle;Signal;HPM_P1;HPM_P2
2022/08/10 00:00:32;;;;;;;3.50;1.77;;;;;;;16.11;100.00;96519.91;1030778;28;20741;-71
2022/08/10 00:01:03;;;;;;;4.53;1.60;;;;;;;16.10;100.00;96518.34;1030105;28;20077;-71
2022/08/10 00:01:33;;;;;;;2.88;1.75;;;;;;;16.03;100.00;96514.13;1030224;28;20141;-71
2022/08/10 00:02:04;;;;;;;3.70;1.70;;;;;;;16.05;100.00;96516.50;1026470;28;20042;-70
2022/08/10 00:02:34;;;;;;;3.78;1.80;;;;;;;16.03;100.00;96518.66;1026519;28;20027;-72
2022/08/10 00:03:06;;;;;;;4.68;1.70;;;;;;;16.02;100.00;96522.34;1022498;28;20031;-71
2022/08/10 00:03:37;;;;;;;3.08;2.03;;;;;;;15.95;100.00;96511.28;1022671;28;20020;-71
2022/08/10 00:04:07;;;;;;;6.10;1.70;;;;;;;15.97;100.00;96514.47;1026541;28;20420;-71
2022/08/10 00:04:37;;;;;;;1.95;1.60;;;;;;;15.98;100.00;96518.69;1022463;28;20082;-70
2022/08/10 00:05:08;;;;;;;2.42;1.73;;;;;;;15.95;100.00;96516.59;1022449;29;20020;-71
2022/08/10 00:05:38;;;;;;;5.55;2.00;;;;;;;15.95;100.00;96521.88;1020720;29;20553;-71
2022/08/10 00:06:09;;;;;;;3.17;2.03;;;;;;;15.93;100.00;96522.16;1022821;28;20057;-71
2022/08/10 00:06:39;;;;;;;3.42;1.55;;;;;;;15.91;100.00;96515.56;1034553;28;20091;-70
2022/08/10 00:07:10;;;;;;;2.70;1.40;;;;;;;15.90;100.00;96516.63;1030387;28;20515;-70
2022/08/10 00:07:40;;;;;;;3.15;1.65;;;;;;;15.89;100.00;96517.69;1030467;28;20030;-71
2022/08/10 00:08:11;;;;;;;3.30;2.08;;;;;;;15.88;100.00;96516.13;1026353;28;20050;-71
2022/08/10 00:08:41;;;;;;;2.00;1.70;;;;;;;15.86;100.00;96516.41;1026425;28;20026;-70
2022/08/10 00:09:12;;;;;;;4.43;2.13;;;;;;;15.84;100.00;96521.16;1022435;29;20477;-71
2022/08/10 00:09:42;;;;;;;2.63;1.52;;;;;;;15.85;100.00;96516.66;1026251;28;20015;-71
2022/08/10 00:10:14;;;;;;;5.13;2.10;;;;;;;15.84;100.00;96509.81;1026418;28;20062;-71
2022/08/10 00:10:44;;;;;;;3.15;2.08;;;;;;;15.82;100.00;96512.72;1026783;28;20043;-71
2022/08/10 00:11:15;;;;;;;3.53;2.17;;;;;;;15.82;100.00;96511.91;1025804;28;20027;-70
2022/08/10 00:11:45;;;;;;;3.35;1.88;;;;;;;15.79;100.00;96519.38;1028605;28;20023;-71
2022/08/10 00:12:18;;;;;;;1.85;1.60;;;;;;;15.79;100.00;96514.06;1026413;28;20023;-71
2022/08/10 00:12:48;;;;;;;3.70;1.80;;;;;;;15.71;100.00;96506.72;1026836;28;20033;-72
2022/08/10 00:13:19;;;;;;;2.17;1.70;;;;;;;15.76;100.00;96514.63;1026439;28;20106;-71
2022/08/10 00:13:49;;;;;;;3.63;1.83;;;;;;;15.76;100.00;96519.91;1030495;28;20018;-71
2022/08/10 00:14:20;;;;;;;2.40;1.75;;;;;;;15.75;100.00;96518.31;1026359;28;20093;-73
2022/08/10 00:14:50;;;;;;;3.30;2.10;;;;;;;15.73;100.00;96515.16;1022404;29;20655;-71
2022/08/10 00:15:21;;;;;;;2.20;1.65;;;;;;;15.73;100.00;96517.81;1022682;28;20046;-71
2022/08/10 00:15:52;;;;;;;2.00;1.80;;;;;;;15.71;100.00;96519.16;1022718;28;20062;-70
2022/08/10 00:16:22;;;;;;;7.03;2.15;;;;;;;15.69;100.00;96515.97;1026335;28;20027;-70
2022/08/10 00:16:53;;;;;;;6.43;2.10;;;;;;;15.69;100.00;96516.78;1026229;28;20046;-71
2022/08/10 00:17:23;;;;;;;3.80;1.92;;;;;;;15.66;100.00;96517.34;1026541;28;20026;-70
2022/08/10 00:17:54;;;;;;;3.50;1.80;;;;;;;15.64;100.00;96516.78;1030541;28;20029;-71
2022/08/10 00:18:24;;;;;;;4.63;2.08;;;;;;;15.64;100.00;96516.78;1026456;28;20409;-71
2022/08/10 00:18:55;;;;;;;3.92;2.17;;;;;;;15.64;100.00;96511.50;1022385;28;20027;-70
2022/08/10 00:19:25;;;;;;;3.20;1.80;;;;;;;15.63;100.00;96515.22;1026508;28;20035;-70
2022/08/10 00:19:56;;;;;;;3.53;2.05;;;;;;;15.62;100.00;96512.81;1026486;28;20030;-70
2022/08/10 00:20:26;;;;;;;4.93;2.42;;;;;;;15.60;100.00;96507.03;1022387;28;20074;-71
2022/08/10 00:20:59;;;;;;;6.25;1.85;;;;;;;15.60;100.00;96518.41;1026544;28;20473;-71
2022/08/10 00:21:30;;;;;;;3.88;1.77;;;;;;;15.59;100.00;96508.09;1025876;28;20031;-71
2022/08/10 00:22:00;;;;;;;5.05;2.10;;;;;;;15.55;100.00;96513.13;1023287;28;20019;-71
2022/08/10 00:22:31;;;;;;;4.90;1.90;;;;;;;15.58;100.00;96515.22;1030316;28;20037;-71
2022/08/10 00:23:02;;;;;;;2.58;1.70;;;;;;;15.52;100.00;96503.88;1026458;28;20045;-71
2022/08/10 00:23:33;;;;;;;1.90;1.60;;;;;;;15.57;100.00;96518.97;1018728;29;20731;-72
2022/08/10 00:24:03;;;;;;;2.15;1.63;;;;;;;15.57;100.00;96516.31;1018368;29;20031;-70
2022/08/10 00:24:34;;;;;;;4.00;2.00;;;;;;;15.57;100.00;96516.31;1018503;29;20039;-71
2022/08/10 00:25:05;;;;;;;2.00;1.80;;;;;;;15.55;100.00;96515.78;1018781;28;20027;-70
2022/08/10 00:25:35;;;;;;;6.28;1.95;;;;;;;15.50;100.00;96505.25;1022607;28;20038;-71
2022/08/10 00:26:06;;;;;;;4.90;2.00;;;;;;;15.53;100.00;96513.44;1030539;28;20129;-70
2022/08/10 00:26:36;;;;;;;2.65;1.85;;;;;;;15.51;100.00;96509.47;1026405;28;20274;-71
2022/08/10 00:27:07;;;;;;;2.25;1.70;;;;;;;15.56;100.00;96515.53;1026255;28;20109;-71
2022/08/10 00:27:37;;;;;;;3.47;2.38;;;;;;;15.52;100.00;96503.09;1026461;28;20027;-71
2022/08/10 00:28:08;;;;;;;5.97;2.00;;;;;;;15.58;100.00;96512.59;1026587;28;20026;-71
2022/08/10 00:28:38;;;;;;;3.97;1.77;;;;;;;15.59;100.00;96516.03;1030411;28;20511;-71
2022/08/10 00:29:09;;;;;;;4.85;2.10;;;;;;;15.58;100.00;96512.59;1034316;28;20038;-71
2022/08/10 00:29:39;;;;;;;3.50;2.13;;;;;;;15.58;100.00;96509.94;1034614;28;20026;-71
2022/08/10 00:30:10;;;;;;;2.30;1.77;;;;;;;15.59;100.00;96508.88;1034599;28;20061;-71
2022/08/10 00:30:41;;;;;;;2.40;1.98;;;;;;;15.57;100.00;96511.81;1034082;28;20036;-71
2022/08/10 00:31:11;;;;;;;3.30;2.03;;;;;;;15.55;100.00;96513.13;1029793;28;20054;-71
2022/08/10 00:31:42;;;;;;;2.75;2.10;;;;;;;15.57;100.00;96513.66;1026221;28;20117;-71
2022/08/10 00:32:12;;;;;;;5.72;1.83;;;;;;;15.54;100.00;96511.56;1026480;28;20038;-71
2022/08/10 00:32:43;;;;;;;2.40;1.67;;;;;;;15.52;100.00;96509.19;1026207;28;20685;-72
2022/08/10 00:33:13;;;;;;;3.78;2.10;;;;;;;15.53;100.00;96510.00;1030429;28;20057;-70
2022/08/10 00:33:44;;;;;;;3.33;2.33;;;;;;;15.48;100.00;96510.81;1026420;28;20085;-70
2022/08/10 00:34:14;;;;;;;2.88;2.10;;;;;;;15.48;100.00;96505.50;1024925;28;20042;-71
2022/08/10 00:34:45;;;;;;;2.63;1.83;;;;;;;15.46;100.00;96498.91;1018377;29;20167;-70
2022/08/10 00:35:18;;;;;;;2.85;1.85;;;;;;;15.50;100.00;96515.84;1026332;28;20026;-70
2022/08/10 00:35:49;;;;;;;2.58;1.90;;;;;;;15.50;100.00;96511.31;1023907;28;20035;-71
2022/08/10 00:36:19;;;;;;;4.18;1.92;;;;;;;15.50;100.00;96515.84;1026039;28;20027;-71
2022/08/10 00:36:50;;;;;;;2.05;1.80;;;;;;;15.48;100.00;96512.66;1022752;28;20034;-70
2022/08/10 00:37:20;;;;;;;2.67;1.95;;;;;;;15.43;100.00;96505.56;1026385;28;20065;-70
2022/08/10 00:37:50;;;;;;;3.03;2.17;;;;;;;15.49;100.00;96511.59;1026589;28;20059;-70
2022/08/10 00:38:21;;;;;;;1.90;1.70;;;;;;;15.50;100.00;96513.19;1026447;28;20100;-71
2022/08/10 00:38:52;;;;;;;3.13;1.98;;;;;;;15.47;100.00;96511.09;1022548;29;20102;-71
2022/08/10 00:39:22;;;;;;;2.50;1.70;;;;;;;15.40;100.00;96503.47;1018368;29;20036;-71
2022/08/10 00:39:53;;;;;;;4.53;2.00;;;;;;;15.47;100.00;96511.09;1022624;28;20069;-70
2022/08/10 00:40:23;;;;;;;3.55;2.00;;;;;;;15.46;100.00;96514.78;1026831;28;20057;-71
2022/08/10 00:40:54;;;;;;;3.35;1.85;;;;;;;15.45;100.00;96516.63;1025175;28;20551;-71
2022/08/10 00:41:24;;;;;;;4.00;2.10;;;;;;;15.44;100.00;96511.63;1025850;28;20082;-71
2022/08/10 00:41:55;;;;;;;2.35;2.05;;;;;;;15.43;100.00;96515.34;1023173;29;20367;-71
2022/08/10 00:42:25;;;;;;;1.75;1.52;;;;;;;15.36;100.00;96504.25;1023051;28;20039;-71
2022/08/10 00:42:56;;;;;;;5.40;2.28;;;;;;;15.40;100.00;96516.69;1035078;28;20026;-71
2022/08/10 00:43:26;;;;;;;2.38;2.10;;;;;;;15.41;100.00;96517.47;1030715;28;20038;-72
2022/08/10 00:43:57;;;;;;;5.07;2.58;;;;;;;15.39;100.00;96516.94;1030833;28;20034;-71
2022/08/10 00:44:27;;;;;;;2.28;1.90;;;;;;;15.39;100.00;96516.94;1030482;28;20081;-71
2022/08/10 00:44:58;;;;;;;2.65;2.28;;;;;;;15.40;100.00;96515.91;1026970;28;20026;-71
2022/08/10 00:45:28;;;;;;;4.00;2.22;;;;;;;15.35;100.00;96503.47;1026264;28;20841;-70
2022/08/10 00:45:59;;;;;;;3.00;2.67;;;;;;;15.41;100.00;96512.19;1026517;28;20130;-71
2022/08/10 00:46:29;;;;;;;4.20;2.30;;;;;;;15.39;100.00;96515.09;1022404;29;20047;-71
2022/08/10 00:47:00;;;;;;;3.72;2.00;;;;;;;15.39;100.00;96512.47;1018781;28;20036;-70
2022/08/10 00:47:30;;;;;;;4.47;2.08;;;;;;;15.31;100.00;96508.53;1026409;28;21033;-71
2022/08/10 00:48:01;;;;;;;2.10;1.90;;;;;;;15.37;100.00;96513.78;1026301;28;20104;-70
2022/08/10 00:48:31;;;;;;;2.80;2.10;;;;;;;15.30;100.00;96506.94;1026655;28;20531;-71
2022/08/10 00:49:02;;;;;;;3.60;2.22;;;;;;;15.37;100.00;96513.78;1026446;28;20131;-71
2022/08/10 00:49:32;;;;;;;3.05;2.20;;;;;;;15.32;100.00;96509.31;1026154;28;20085;-72
2022/08/10 00:50:04;;;;;;;2.28;1.80;;;;;;;15.35;100.00;96513.25;1030273;28;20026;-71
2022/08/10 00:50:34;;;;;;;4.05;2.13;;;;;;;15.35;100.00;96513.25;1030490;28;20030;-72
2022/08/10 00:51:04;;;;;;;2.05;1.67;;;;;;;15.33;100.00;96511.69;1029651;28;20084;-71
2022/08/10 00:51:36;;;;;;;2.28;1.83;;;;;;;15.31;100.00;96513.03;1030141;28;20040;-71
2022/08/10 00:52:07;;;;;;;4.03;1.98;;;;;;;15.31;100.00;96511.16;1022404;29;20592;-70
2022/08/10 00:52:37;;;;;;;3.08;2.03;;;;;;;15.31;100.00;96515.66;1022469;28;20027;-71
2022/08/10 00:53:08;;;;;;;4.13;2.05;;;;;;;15.31;100.00;96508.53;1022255;29;20484;-71
2022/08/10 00:53:38;;;;;;;3.80;2.05;;;;;;;15.31;100.00;96513.03;1026341;28;20074;-71
2022/08/10 00:54:08;;;;;;;2.10;1.90;;;;;;;15.32;100.00;96509.31;1018331;29;20064;-71
2022/08/10 00:54:41;;;;;;;3.95;1.95;;;;;;;15.25;100.00;96498.25;1018296;29;20442;-71
2022/08/10 00:55:11;;;;;;;4.13;2.00;;;;;;;15.28;100.00;96508.28;1022665;28;20803;-72
2022/08/10 00:55:42;;;;;;;2.17;1.92;;;;;;;15.29;100.00;96509.84;1022636;28;20031;-70
2022/08/10 00:56:12;;;;;;;2.55;1.98;;;;;;;15.28;100.00;96513.56;1022171;28;20027;-71
2022/08/10 00:56:43;;;;;;;3.40;2.30;;;;;;;15.26;100.00;96505.13;1018640;29;20047;-70
2022/08/10 00:57:13;;;;;;;2.35;1.80;;;;;;;15.20;100.00;96501.72;1022382;29;20027;-70
2022/08/10 00:57:44;;;;;;;3.20;2.00;;;;;;;15.24;100.00;96508.03;1018357;29;20426;-71
2022/08/10 00:58:14;;;;;;;4.03;1.83;;;;;;;15.22;100.00;96504.06;1014661;29;20039;-71
2022/08/10 00:58:45;;;;;;;3.10;1.75;;;;;;;15.22;100.00;96504.84;1018722;29;20063;-71
2022/08/10 00:59:16;;;;;;;5.55;2.05;;;;;;;15.21;100.00;96511.22;1022432;29;20053;-70
2022/08/10 00:59:46;;;;;;;4.75;2.25;;;;;;;15.21;100.00;96508.56;1020834;29;20035;-71
2022/08/10 01:00:17;;;;;;;4.07;1.90;;;;;;;15.20;100.00;96509.66;1022590;28;20445;-71
2022/08/10 01:00:50;;;;;;;5.15;1.90;;;;;;;15.19;100.00;96505.44;1030561;28;20138;-71
2022/08/10 01:01:20;;;;;;;3.47;2.13;;;;;;;15.18;100.00;96509.13;1025832;28;20854;-72
2022/08/10 01:01:51;;;;;;;3.85;2.40;;;;;;;15.17;100.00;96504.91;1026339;28;20019;-70
2022/08/10 01:02:21;;;;;;;6.20;2.13;;;;;;;15.17;100.00;96506.75;1025879;28;20034;-72
2022/08/10 01:02:52;;;;;;;5.85;2.05;;;;;;;15.14;100.00;96508.09;1022622;28;20047;-70
2022/08/10 01:03:22;;;;;;;2.03;1.83;;;;;;;15.14;100.00;96508.09;1026089;28;20789;-72
2022/08/10 01:03:53;;;;;;;6.47;2.10;;;;;;;15.14;100.00;96508.09;1022209;28;20454;-70
2022/08/10 01:04:24;;;;;;;3.03;1.80;;;;;;;15.14;100.00;96515.22;1022097;29;20039;-71
2022/08/10 01:04:54;;;;;;;7.43;1.98;;;;;;;15.04;100.00;96502.84;1022314;28;20030;-71
2022/08/10 01:05:24;;;;;;;3.03;1.85;;;;;;;15.13;100.00;96511.81;1026457;28;20087;-72
2022/08/10 01:06:02;;;;;;;4.78;2.10;;;;;;;15.12;100.00;96504.91;1030349;28;20033;-71
2022/08/10 01:07:00;;;;;;;3.30;1.90;;;;;;;15.09;100.00;96506.28;1026705;28;20037;-72
2022/08/10 01:07:33;;;;;;;5.60;1.92;;;;;;;15.09;100.00;96505.50;1015504;29;20028;-71
2022/08/10 01:08:07;;;;;;;5.15;2.00;;;;;;;15.08;100.00;96509.19;1023158;28;20015;-72
2022/08/10 01:08:49;;;;;;;4.30;2.25;;;;;;;15.06;100.00;96506.03;1030416;28;20022;-71
2022/08/10 01:09:29;;;;;;;3.45;2.00;;;;;;;15.04;100.00;96505.50;1024866;28;20027;-71
2022/08/10 01:10:03;;;;;;;2.90;2.22;;;;;;;15.03;100.00;96509.22;1026211;28;20101;-72
2022/08/10 01:10:58;;;;;;;3.88;1.95;;;;;;;15.06;100.00;96516.59;1026323;28;20034;-71
2022/08/10 01:11:41;;;;;;;3.80;2.00;;;;;;;14.97;100.00;96497.06;1027852;28;20516;-71
2022/08/10 01:12:15;;;;;;;4.82;2.00;;;;;;;14.95;100.00;96504.47;1026280;28;20022;-71
2022/08/10 01:13:08;;;;;;;3.70;2.00;;;;;;;14.95;100.00;96499.19;1018475;29;20098;-71
2022/08/10 01:13:51;;;;;;;3.40;2.05;;;;;;;15.00;100.00;96512.41;1018488;29;20074;-71
2022/08/10 01:14:34;;;;;;;3.13;2.20;;;;;;;15.00;100.00;96504.47;1023561;28;20178;-71
2022/08/10 01:15:07;;;;;;;4.57;2.35;;;;;;;14.99;100.00;96510.78;1028588;28;20057;-71
2022/08/10 01:15:54;;;;;;;3.88;2.38;;;;;;;14.97;100.00;96499.72;1030126;28;20018;-71
2022/08/10 01:16:35;;;;;;;3.75;2.25;;;;;;;14.97;100.00;96508.44;1026190;28;20038;-71
2022/08/10 01:17:29;;;;;;;7.60;2.97;;;;;;;15.00;100.00;96507.09;1026185;28;20031;-71
2022/08/10 01:18:13;;;;;;;5.22;2.35;;;;;;;14.91;100.00;96498.16;1023354;28;20031;-72
2022/08/10 01:18:46;;;;;;;2.30;2.10;;;;;;;14.99;100.00;96506.31;1027006;28;20019;-72
2022/08/10 01:19:33;;;;;;;2.92;2.05;;;;;;;14.98;100.00;96509.22;1030242;28;20026;-71
2022/08/10 01:20:13;;;;;;;2.80;2.00;;;;;;;15.00;100.00;96509.75;1026362;28;20727;-71
2022/08/10 01:21:08;;;;;;;5.28;2.40;;;;;;;14.97;100.00;96502.38;1018421;29;20019;-71
2022/08/10 01:21:57;;;;;;;4.18;1.98;;;;;;;14.96;100.00;96504.22;1019070;28;20070;-72
2022/08/10 01:22:30;;;;;;;6.68;2.47;;;;;;;14.96;100.00;96506.06;1025483;28;20035;-72
2022/08/10 01:23:19;;;;;;;4.60;2.13;;;;;;;14.94;100.00;96508.19;1030130;28;20125;-71
2022/08/10 01:24:17;;;;;;;4.32;2.25;;;;;;;14.90;100.00;96501.88;1026242;28;20051;-72
2022/08/10 01:25:10;;;;;;;3.15;2.05;;;;;;;14.90;100.00;96507.94;1026118;28;20026;-71
2022/08/10 01:26:08;;;;;;;2.10;1.90;;;;;;;14.73;100.00;96479.22;1031587;28;20072;-72
2022/08/10 01:26:52;;;;;;;3.58;2.13;;;;;;;14.88;100.00;96503.97;1031532;28;20026;-71
2022/08/10 01:27:41;;;;;;;3.97;2.38;;;;;;;14.88;100.00;96510.06;1034101;28;20439;-72
2022/08/10 01:28:33;;;;;;;4.57;2.30;;;;;;;14.87;100.00;96503.19;1030230;28;20034;-70
2022/08/10 01:29:31;;;;;;;4.75;2.10;;;;;;;14.87;100.00;96499.75;1024740;28;20499;-70
2022/08/10 01:30:11;;;;;;;5.00;2.55;;;;;;;14.84;100.00;96499.22;1024730;28;20093;-71
2022/08/10 01:30:41;;;;;;;2.03;1.75;;;;;;;14.85;100.00;96500.03;1023895;28;20139;-71
2022/08/10 01:31:13;;;;;;;2.80;2.10;;;;;;;14.84;100.00;96491.31;1021567;29;20262;-70
2022/08/10 01:31:46;;;;;;;3.20;1.90;;;;;;;14.87;100.00;96502.41;1018404;29;20031;-71
2022/08/10 01:32:23;;;;;;;4.95;2.50;;;;;;;14.85;100.00;96494.72;1022114;28;20031;-70
2022/08/10 01:33:00;;;;;;;4.38;2.80;;;;;;;14.87;100.00;96497.91;1022316;29;20031;-71
2022/08/10 01:33:56;;;;;;;3.08;2.22;;;;;;;14.85;100.00;96490.25;1022715;28;20516;-71
2022/08/10 01:34:32;;;;;;;2.72;2.00;;;;;;;14.88;100.00;96493.41;1026458;28;20034;-71
2022/08/10 01:35:09;;;;;;;2.80;2.05;;;;;;;14.88;100.00;96501.34;1026297;28;20066;-71
2022/08/10 01:35:53;;;;;;;3.22;2.05;;;;;;;14.87;100.00;96499.75;1026047;28;20839;-71
2022/08/10 01:36:27;;;;;;;2.35;2.15;;;;;;;14.83;100.00;96489.72;1026430;28;20069;-70
2022/08/10 01:37:01;;;;;;;5.45;2.05;;;;;;;14.78;100.00;96481.81;1018343;29;20074;-71
2022/08/10 01:37:32;;;;;;;2.40;2.20;;;;;;;14.88;100.00;96488.13;1018261;29;20828;-71
2022/08/10 01:38:17;;;;;;;3.78;2.05;;;;;;;14.83;100.00;96487.09;1014435;29;20024;-71
2022/08/10 01:38:48;;;;;;;4.22;2.10;;;;;;;14.92;100.00;96494.44;1014463;29;20024;-72
2022/08/10 01:39:24;;;;;;;2.58;2.20;;;;;;;14.91;100.00;96493.66;1021997;29;20578;-71
2022/08/10 01:39:56;;;;;;;3.28;2.30;;;;;;;14.91;100.00;96498.94;1026258;28;20057;-71
2022/08/10 01:40:27;;;;;;;3.80;2.22;;;;;;;14.90;100.00;96481.50;1022413;29;20035;-71
2022/08/10 01:41:02;;;;;;;4.55;2.35;;;;;;;14.85;100.00;96484.16;1022260;28;20023;-71
2022/08/10 01:41:43;;;;;;;6.22;1.98;;;;;;;14.89;100.00;96484.41;1022376;28;20469;-71
2022/08/10 01:42:15;;;;;;;2.78;1.83;;;;;;;14.87;100.00;96487.34;1028243;28;20061;-71
2022/08/10 01:42:46;;;;;;;5.50;2.30;;;;;;;14.84;100.00;96483.38;1026159;28;20697;-71
2022/08/10 01:43:16;;;;;;;2.83;2.63;;;;;;;14.89;100.00;96484.41;1020250;29;20059;-70
2022/08/10 01:44:11;;;;;;;3.03;2.30;;;;;;;14.88;100.00;96493.41;1022136;29;20605;-71
2022/08/10 01:45:01;;;;;;;2.80;2.13;;;;;;;14.87;100.00;96484.69;1021249;28;20024;-70
2022/08/10 01:45:32;;;;;;;4.95;1.90;;;;;;;14.88;100.00;96488.13;1018249;29;20024;-72
2022/08/10 01:46:02;;;;;;;5.53;2.15;;;;;;;14.83;100.00;96484.44;1022183;28;20051;-71
2022/08/10 01:46:33;;;;;;;2.92;2.35;;;;;;;14.80;100.00;96476.28;1026186;28;20038;-70
2022/08/10 01:48:49;;;;;;;3.00;2.10;;;;;;;14.84;100.00;96487.88;1024133;28;20035;-71
2022/08/10 01:49:19;;;;;;;3.63;2.35;;;;;;;14.80;100.00;96490.28;1022907;28;20062;-71
2022/08/10 01:49:52;;;;;;;3.95;2.22;;;;;;;14.84;100.00;96486.03;1018377;29;20039;-72
2022/08/10 01:50:32;;;;;;;8.40;2.47;;;;;;;14.85;100.00;96490.25;1025278;28;20027;-71
2022/08/10 01:51:22;;;;;;;3.20;1.92;;;;;;;14.84;100.00;96488.66;1023044;28;20453;-72
2022/08/10 01:51:54;;;;;;;3.15;1.83;;;;;;;14.82;100.00;96493.44;1030182;28;20766;-71
2022/08/10 01:52:25;;;;;;;4.65;2.15;;;;;;;14.81;100.00;96491.84;1022160;28;20027;-70
2022/08/10 01:53:01;;;;;;;3.40;1.90;;;;;;;14.79;100.00;96491.34;1022283;28;20632;-71
2022/08/10 01:53:39;;;;;;;3.42;2.00;;;;;;;14.78;100.00;96495.03;1017240;29;20615;-71
2022/08/10 01:54:13;;;;;;;5.45;2.97;;;;;;;14.76;100.00;96491.88;1017824;29;20072;-71
2022/08/10 01:54:43;;;;;;;2.35;2.05;;;;;;;14.71;100.00;96477.88;1023428;28;20038;-70
2022/08/10 01:55:14;;;;;;;3.72;2.35;;;;;;;14.75;100.00;96490.28;1018331;29;20477;-71
2022/08/10 01:55:44;;;;;;;2.40;2.10;;;;;;;14.75;100.00;96490.28;1018302;29;20097;-71
2022/08/10 01:56:15;;;;;;;3.13;2.17;;;;;;;14.70;100.00;96486.88;1021939;28;20496;-71
2022/08/10 01:56:47;;;;;;;3.28;2.20;;;;;;;14.72;100.00;96487.38;1014481;29;20027;-70
2022/08/10 01:57:18;;;;;;;5.15;2.00;;;;;;;14.74;100.00;96491.34;1018242;29;20178;-71
2022/08/10 01:57:48;;;;;;;4.07;2.20;;;;;;;14.71;100.00;96483.19;1029952;28;20564;-71
2022/08/10 01:58:19;;;;;;;3.13;2.38;;;;;;;14.71;100.00;96489.25;1006551;29;20037;-71
2022/08/10 01:58:55;;;;;;;5.15;2.30;;;;;;;14.70;100.00;96492.16;1018185;29;20023;-71
2022/08/10 01:59:33;;;;;;;4.10;2.00;;;;;;;14.68;100.00;96486.34;1022307;28;20034;-71
2022/08/10 02:00:05;;;;;;;3.33;2.00;;;;;;;14.64;100.00;96482.69;1018149;28;20118;-71
2022/08/10 02:00:37;;;;;;;5.55;2.15;;;;;;;14.61;100.00;96491.91;1022149;29;20023;-70
2022/08/10 02:01:09;;;;;;;3.50;2.40;;;;;;;14.64;100.00;96491.38;1017862;29;20084;-70
2022/08/10 02:01:42;;;;;;;2.63;1.92;;;;;;;14.65;100.00;96489.53;1014217;29;20135;-72
2022/08/10 02:02:13;;;;;;;3.05;2.53;;;;;;;14.63;100.00;96492.47;1018159;29;20051;-70
2022/08/10 02:02:44;;;;;;;3.78;2.00;;;;;;;14.60;100.00;96485.06;1018175;29;20399;-70
2022/08/10 02:03:14;;;;;;;2.70;2.15;;;;;;;14.60;100.00;96482.44;1018057;29;20019;-71
2022/08/10 02:03:46;;;;;;;3.55;2.10;;;;;;;14.56;100.00;96482.19;1018364;29;20115;-70
2022/08/10 02:04:17;;;;;;;3.47;2.15;;;;;;;14.57;100.00;96485.59;1022068;29;20011;-71
2022/08/10 02:04:48;;;;;;;2.80;2.20;;;;;;;14.52;100.00;96475.84;1020227;28;20067;-72
2022/08/10 02:05:18;;;;;;;2.10;1.90;;;;;;;14.53;100.00;96480.06;1018229;29;20491;-71
2022/08/10 02:05:52;;;;;;;6.30;2.65;;;;;;;14.57;100.00;96485.59;1014540;29;20015;-70
2022/08/10 02:06:24;;;;;;;2.47;2.28;;;;;;;14.56;100.00;96486.66;1018118;29;20019;-71
2022/08/10 02:06:54;;;;;;;5.88;2.00;;;;;;;14.55;100.00;96488.53;1017895;29;20740;-71
2022/08/10 02:07:26;;;;;;;3.60;2.42;;;;;;;14.55;100.00;96482.44;1022056;29;20023;-70
2022/08/10 02:07:56;;;;;;;4.50;2.10;;;;;;;14.53;100.00;96481.94;1014398;29;20530;-72
2022/08/10 02:08:27;;;;;;;6.65;2.13;;;;;;;14.55;100.00;96485.06;1018027;29;20019;-69
2022/08/10 02:08:58;;;;;;;2.97;1.88;;;;;;;14.55;100.00;96482.44;1022414;28;20027;-71
2022/08/10 02:09:36;;;;;;;4.10;2.35;;;;;;;14.52;100.00;96480.31;1022350;28;20543;-71
2022/08/10 02:10:09;;;;;;;2.60;1.92;;;;;;;14.53;100.00;96487.22;1020229;28;20090;-71
2022/08/10 02:10:42;;;;;;;4.53;2.05;;;;;;;14.49;100.00;96486.13;1018345;29;20050;-71
2022/08/10 02:11:13;;;;;;;3.15;1.90;;;;;;;14.50;100.00;96487.72;1017701;29;20108;-70
2022/08/10 02:11:43;;;;;;;5.07;2.25;;;;;;;14.48;100.00;96479.25;1017155;29;20506;-71
2022/08/10 02:12:15;;;;;;;7.40;2.10;;;;;;;14.49;100.00;96486.13;1018637;29;20127;-70
2022/08/10 02:12:46;;;;;;;3.88;2.20;;;;;;;14.47;100.00;96488.25;1017981;28;20054;-70
2022/08/10 02:13:16;;;;;;;5.43;2.40;;;;;;;14.41;100.00;96489.31;1022284;28;20015;-70
2022/08/10 02:13:47;;;;;;;2.53;2.17;;;;;;;14.44;100.00;96483.50;1014223;29;20163;-71
2022/08/10 02:14:17;;;;;;;2.20;2.00;;;;;;;14.42;100.00;96481.13;1014366;29;20031;-71
2022/08/10 02:14:51;;;;;;;5.95;2.50;;;;;;;14.40;100.00;96477.97;1014267;29;20398;-71
2022/08/10 02:15:21;;;;;;;4.15;2.38;;;;;;;14.38;100.00;96475.59;1022102;29;20113;-71
2022/08/10 02:15:52;;;;;;;3.63;2.30;;;;;;;14.42;100.00;96478.50;1014456;29;20040;-70
2022/08/10 02:16:23;;;;;;;2.55;2.28;;;;;;;14.42;100.00;96491.69;1010374;29;20539;-71
2022/08/10 02:16:53;;;;;;;2.78;2.15;;;;;;;14.39;100.00;96477.19;1013492;29;20020;-70
2022/08/10 02:17:26;;;;;;;3.78;2.17;;;;;;;14.40;100.00;96477.97;1018288;29;20024;-71
2022/08/10 02:17:59;;;;;;;4.88;2.45;;;;;;;14.39;100.00;96477.19;1022254;29;20011;-70
2022/08/10 02:18:29;;;;;;;1.95;1.63;;;;;;;14.33;100.00;96475.59;1018204;29;20026;-70
2022/08/10 02:19:00;;;;;;;5.75;2.47;;;;;;;14.38;100.00;96482.72;1018985;29;20524;-72
2022/08/10 02:19:30;;;;;;;2.63;2.05;;;;;;;14.38;100.00;96482.72;1026159;28;20033;-70
2022/08/10 02:20:09;;;;;;;2.30;2.00;;;;;;;14.34;100.00;96474.53;1022290;29;20020;-71
2022/08/10 02:20:42;;;;;;;2.30;2.10;;;;;;;14.33;100.00;96472.97;1020823;28;20039;-70
2022/08/10 02:21:13;;;;;;;5.15;2.40;;;;;;;14.37;100.00;96478.50;1017739;29;20083;-71
2022/08/10 02:21:44;;;;;;;4.22;2.38;;;;;;;14.32;100.00;96479.31;1021947;29;20042;-71
2022/08/10 02:22:14;;;;;;;6.65;2.70;;;;;;;14.36;100.00;96482.22;1021948;28;20023;-70
2022/08/10 02:22:48;;;;;;;5.10;2.45;;;;;;;14.34;100.00;96479.03;1022242;29;20019;-70
2022/08/10 02:23:23;;;;;;;8.95;2.60;;;;;;;14.34;100.00;96485.09;1021853;29;20019;-72
2022/08/10 02:23:53;;;;;;;2.92;2.20;;;;;;;14.32;100.00;96479.31;1021939;28;20106;-71
2022/08/10 02:24:24;;;;;;;18.30;4.28;;;;;;;14.30;100.00;96478.00;1019385;29;20019;-71
2022/08/10 02:24:54;;;;;;;2.55;2.25;;;;;;;14.28;100.00;96474.81;1015563;29;20059;-71
2022/08/10 02:25:25;;;;;;;15.07;3.03;;;;;;;14.25;100.00;96476.16;1018195;29;20025;-70
2022/08/10 02:25:56;;;;;;;7.32;2.50;;;;;;;14.32;100.00;96487.22;1022137;29;20042;-71
2022/08/10 02:26:27;;;;;;;3.22;2.30;;;;;;;14.31;100.00;96483.00;1022063;29;20035;-71
2022/08/10 02:26:57;;;;;;;4.30;2.60;;;;;;;14.30;100.00;96483.28;1014424;29;20119;-70
2022/08/10 02:27:28;;;;;;;2.80;2.08;;;;;;;14.29;100.00;96477.19;1013942;29;20028;-70
2022/08/10 02:27:58;;;;;;;6.05;2.55;;;;;;;14.29;100.00;96487.75;1018214;29;20663;-71
2022/08/10 02:28:30;;;;;;;3.85;2.58;;;;;;;14.29;100.00;96487.75;1022824;29;20027;-71
2022/08/10 02:29:01;;;;;;;3.72;2.40;;;;;;;14.28;100.00;96491.44;1022767;28;20408;-72
2022/08/10 02:29:31;;;;;;;5.88;2.40;;;;;;;14.24;100.00;96482.47;1018824;29;20115;-71
2022/08/10 02:30:03;;;;;;;5.93;2.85;;;;;;;14.20;100.00;96481.44;1026831;28;20019;-71
2022/08/10 02:30:34;;;;;;;5.38;2.25;;;;;;;14.22;100.00;96476.69;1022763;28;20027;-72
2022/08/10 02:31:14;;;;;;;3.53;2.40;;;;;;;14.25;100.00;96489.38;1018450;29;20118;-70
2022/08/10 02:31:44;;;;;;;3.33;2.50;;;;;;;14.23;100.00;96486.19;1026715;28;20093;-71
2022/08/10 02:32:14;;;;;;;2.95;2.40;;;;;;;14.24;100.00;96484.34;1018985;29;20076;-71
2022/08/10 02:32:45;;;;;;;2.65;2.40;;;;;;;14.23;100.00;96490.69;1023019;29;20026;-71
2022/08/10 02:33:16;;;;;;;2.88;2.38;;;;;;;14.16;100.00;96475.13;1018989;29;20390;-71
2022/08/10 02:33:47;;;;;;;2.65;2.45;;;;;;;14.22;100.00;96487.25;1019117;29;20035;-71
2022/08/10 02:34:17;;;;;;;3.75;2.42;;;;;;;14.14;100.00;96475.38;1018822;29;20171;-71
2022/08/10 02:34:47;;;;;;;4.25;1.90;;;;;;;14.19;100.00;96477.22;1022961;29;20063;-71
2022/08/10 02:35:18;;;;;;;2.70;2.30;;;;;;;14.18;100.00;96477.47;1015150;29;20024;-71
2022/08/10 02:35:50;;;;;;;3.47;2.45;;;;;;;14.18;100.00;96483.53;1022673;29;20082;-71
2022/08/10 02:36:20;;;;;;;4.03;2.50;;;;;;;14.12;100.00;96474.06;1019082;29;20510;-72
2022/08/10 02:36:52;;;;;;;5.55;2.30;;;;;;;14.18;100.00;96482.75;1011024;29;20009;-71